Time;durP1;ratioP1;P1;durP2;ratioP2;P2;SDS_P1;SDS_P2;PMS_P1;PMS_P2;Temp;Humidity;BMP_temperature;BMP_pressure;BME280_temperature;BME280_humidity;BME280_pressure;Samples;Min_cycle;Max_cycle;Signal;HPM_P1;HPM_P2
2021/07/09 00:01:25;;;;;;;4.50;1.70;;;;;;;12.61;100.00;93475.13;2569656;23;20000;-84
2021/07/09 00:02:26;;;;;;;2.30;1.55;;;;;;;12.58;100.00;93476.69;2557259;23;20080;-84
2021/07/09 00:03:27;;;;;;;2.25;1.60;;;;;;;12.59;100.00;93480.88;2545018;23;20056;-84
2021/07/09 00:04:28;;;;;;;2.35;1.65;;;;;;;12.59;100.00;93472.09;2544608;23;20463;-85
2021/07/09 00:05:29;;;;;;;1.73;1.60;;;;;;;12.55;100.00;93477.53;2545001;23;20453;-84
2021/07/09 00:06:29;;;;;;;2.15;1.60;;;;;;;12.61;100.00;93477.78;2544957;23;20001;-84
2021/07/09 00:07:30;;;;;;;1.33;1.23;;;;;;;12.48;100.00;93480.38;2545000;23;20456;-84
2021/07/09 00:08:31;;;;;;;1.58;1.30;;;;;;;12.51;100.00;93474.19;2569669;23;20000;-84
2021/07/09 00:09:32;;;;;;;2.40;1.60;;;;;;;12.48;100.00;93483.06;2557075;23;20021;-84
2021/07/09 00:10:33;;;;;;;2.83;1.40;;;;;;;12.44;100.00;93482.41;2544992;23;20403;-84
2021/07/09 00:11:36;;;;;;;1.52;1.42;;;;;;;12.37;100.00;93473.75;2557256;23;20029;-84
2021/07/09 00:12:37;;;;;;;1.85;1.60;;;;;;;12.40;100.00;93481.72;2556784;23;20005;-83
2021/07/09 00:13:38;;;;;;;1.95;1.20;;;;;;;12.47;100.00;93478.88;2557105;23;20028;-83
2021/07/09 00:14:38;;;;;;;3.20;1.70;;;;;;;12.42;100.00;93486.66;2568972;23;20008;-84
2021/07/09 00:15:39;;;;;;;2.47;1.50;;;;;;;12.54;100.00;93476.03;2556681;23;20020;-84
2021/07/09 00:16:41;;;;;;;3.72;1.70;;;;;;;12.44;100.00;93479.72;2556961;23;20008;-84
2021/07/09 00:17:41;;;;;;;2.25;1.27;;;;;;;12.55;100.00;93480.22;2557246;23;20001;-84
2021/07/09 00:18:43;;;;;;;1.90;1.80;;;;;;;12.43;100.00;93480.91;2569729;23;20008;-84
2021/07/09 00:19:44;;;;;;;2.10;1.50;;;;;;;12.57;100.00;93485.16;2569824;23;20355;-84
2021/07/09 00:20:45;;;;;;;1.67;1.50;;;;;;;12.51;100.00;93484.94;2569412;23;20024;-84
2021/07/09 00:21:46;;;;;;;1.92;1.58;;;;;;;12.49;100.00;93481.13;2557189;23;20059;-84
2021/07/09 00:22:46;;;;;;;2.35;1.90;;;;;;;12.36;100.00;93478.38;2581893;23;20004;-84
2021/07/09 00:23:47;;;;;;;2.25;1.73;;;;;;;12.39;100.00;93477.53;2582169;23;20506;-83
2021/07/09 00:24:48;;;;;;;2.20;1.50;;;;;;;12.39;100.00;93482.16;2569312;23;20012;-84
2021/07/09 00:25:49;;;;;;;1.40;1.27;;;;;;;12.39;100.00;93477.53;2544568;23;20009;-83
2021/07/09 00:26:50;;;;;;;2.55;1.52;;;;;;;12.35;100.00;93482.22;2544611;23;20076;-84
2021/07/09 00:27:50;;;;;;;1.92;1.70;;;;;;;12.40;100.00;93483.66;2544408;23;20436;-83
2021/07/09 00:28:51;;;;;;;2.85;1.60;;;;;;;12.34;100.00;93478.03;2556733;23;20032;-84
2021/07/09 00:29:51;;;;;;;2.40;1.52;;;;;;;12.40;100.00;93472.94;2569594;23;20024;-84
2021/07/09 00:30:52;;;;;;;3.20;1.77;;;;;;;12.39;100.00;93477.53;2569613;23;20014;-84
2021/07/09 00:31:53;;;;;;;1.98;1.80;;;;;;;12.39;100.00;93474.84;2569740;23;20012;-83
2021/07/09 00:32:53;;;;;;;5.53;1.60;;;;;;;12.35;100.00;93474.94;2569622;23;20005;-84
2021/07/09 00:33:54;;;;;;;3.40;1.67;;;;;;;12.37;100.00;93476.44;2569444;23;20012;-83
2021/07/09 00:34:55;;;;;;;2.25;1.75;;;;;;;12.28;100.00;93475.09;2569369;23;20001;-83
2021/07/09 00:35:56;;;;;;;4.50;1.95;;;;;;;12.21;100.00;93471.81;2556897;23;20013;-83
2021/07/09 00:36:56;;;;;;;4.38;1.80;;;;;;;12.22;100.00;93466.03;2569560;23;20008;-83
2021/07/09 00:37:57;;;;;;;3.45;2.08;;;;;;;12.28;100.00;93471.66;2557031;23;20005;-84
2021/07/09 00:38:58;;;;;;;2.03;1.60;;;;;;;12.29;100.00;93470.47;2557085;23;20005;-83
2021/07/09 00:39:58;;;;;;;4.07;2.10;;;;;;;12.28;100.00;93471.66;2556653;23;20020;-84
2021/07/09 00:40:59;;;;;;;1.85;1.67;;;;;;;12.34;100.00;93475.38;2556915;23;20008;-84
2021/07/09 00:42:00;;;;;;;2.25;1.80;;;;;;;12.30;100.00;93467.41;2569597;23;20008;-84
2021/07/09 00:43:01;;;;;;;1.95;1.70;;;;;;;12.26;100.00;93469.41;2557226;23;20005;-83
2021/07/09 00:44:03;;;;;;;1.83;1.73;;;;;;;12.30;100.00;93474.69;2545239;23;20414;-83
2021/07/09 00:45:07;;;;;;;4.63;1.83;;;;;;;12.39;100.00;93471.44;2557700;23;20001;-84
2021/07/09 00:46:09;;;;;;;1.92;1.70;;;;;;;12.42;100.00;93474.00;2570118;23;20008;-83
2021/07/09 00:47:10;;;;;;;1.67;1.58;;;;;;;12.44;100.00;93469.00;2569709;23;20004;-83
2021/07/09 00:48:11;;;;;;;3.35;1.90;;;;;;;12.28;100.00;93468.97;2569787;23;20000;-84
2021/07/09 00:49:11;;;;;;;2.38;2.17;;;;;;;12.24;100.00;93477.09;2569361;23;20031;-83
2021/07/09 00:50:13;;;;;;;2.17;2.00;;;;;;;12.28;100.00;93477.00;2569631;23;20065;-83
2021/07/09 00:51:15;;;;;;;2.53;1.90;;;;;;;12.28;100.00;93480.44;2557134;23;20510;-83
2021/07/09 00:52:16;;;;;;;2.47;2.00;;;;;;;12.32;100.00;93475.75;2544628;23;20013;-83
2021/07/09 00:53:17;;;;;;;2.60;2.00;;;;;;;12.30;100.00;93470.06;2545171;23;20008;-83
2021/07/09 00:54:18;;;;;;;3.13;2.08;;;;;;;12.28;100.00;93472.41;2544694;23;20029;-83
2021/07/09 00:55:19;;;;;;;5.05;2.30;;;;;;;12.21;100.00;93485.22;2557138;23;20001;-83
2021/07/09 00:56:21;;;;;;;2.80;1.80;;;;;;;12.19;100.00;93477.59;2569683;23;20000;-83
2021/07/09 00:57:22;;;;;;;3.55;2.15;;;;;;;12.23;100.00;93475.59;2569547;23;20007;-83
2021/07/09 00:58:23;;;;;;;2.03;1.75;;;;;;;12.29;100.00;93479.28;2569317;23;20019;-83
2021/07/09 00:59:24;;;;;;;5.20;2.15;;;;;;;12.22;100.00;93473.34;2557168;23;20128;-83
2021/07/09 01:00:25;;;;;;;2.22;2.03;;;;;;;12.24;100.00;93479.00;2557402;23;20448;-83
2021/07/09 01:01:25;;;;;;;4.10;1.70;;;;;;;12.28;100.00;93477.00;2556901;23;20015;-83
2021/07/09 01:02:26;;;;;;;2.10;2.00;;;;;;;12.15;100.00;93473.47;2544715;23;20005;-83
2021/07/09 01:03:27;;;;;;;2.92;2.13;;;;;;;12.23;100.00;93469.47;2569692;23;20004;-83
2021/07/09 01:04:28;;;;;;;2.67;2.20;;;;;;;12.18;100.00;93470.72;2569061;23;20000;-83
2021/07/09 01:05:29;;;;;;;3.63;2.00;;;;;;;12.29;100.00;93473.16;2544728;23;20010;-83
2021/07/09 01:06:29;;;;;;;3.42;1.83;;;;;;;12.33;100.00;93471.16;2544652;23;20481;-83
2021/07/09 01:07:30;;;;;;;2.88;1.80;;;;;;;12.24;100.00;93473.66;2557028;23;20012;-82
2021/07/09 01:08:32;;;;;;;2.53;1.85;;;;;;;12.29;100.00;93473.16;2569486;23;20084;-83
2021/07/09 01:09:32;;;;;;;2.15;1.90;;;;;;;12.20;100.00;93479.09;2569243;23;20088;-83
2021/07/09 01:10:33;;;;;;;3.28;1.75;;;;;;;12.18;100.00;93473.41;2557039;23;20012;-84
2021/07/09 01:11:34;;;;;;;2.67;1.90;;;;;;;12.16;100.00;93474.97;2544872;23;20445;-83
2021/07/09 01:12:36;;;;;;;2.55;2.20;;;;;;;12.29;100.00;93478.50;2544609;23;20211;-83
2021/07/09 01:13:40;;;;;;;2.38;2.00;;;;;;;12.26;100.00;93476.69;2569262;23;20089;-83
2021/07/09 01:14:40;;;;;;;5.68;1.90;;;;;;;12.32;97.37;93477.69;2545789;23;20005;-82
2021/07/09 01:15:41;;;;;;;2.30;2.00;;;;;;;12.29;97.79;93483.88;2569333;23;20016;-83
2021/07/09 01:16:42;;;;;;;2.33;2.08;;;;;;;12.17;100.00;93479.94;2568831;23;20005;-83
2021/07/09 01:17:43;;;;;;;3.08;2.03;;;;;;;12.05;100.00;93480.59;2544717;23;20005;-83
2021/07/09 01:18:43;;;;;;;2.35;2.15;;;;;;;12.10;100.00;93485.44;2544802;23;20032;-84
2021/07/09 01:19:45;;;;;;;2.50;2.25;;;;;;;12.03;100.00;93481.00;2557033;23;20084;-84
2021/07/09 01:20:46;;;;;;;2.53;2.20;;;;;;;12.03;98.54;93480.25;2569628;23;20043;-84
2021/07/09 01:21:48;;;;;;;2.65;2.10;;;;;;;12.06;98.30;93479.41;2569458;23;20000;-84
2021/07/09 01:22:50;;;;;;;2.72;2.30;;;;;;;12.00;98.86;93481.81;2569341;23;20048;-82
2021/07/09 01:23:59;;;;;;;2.55;2.00;;;;;;;11.95;99.34;93479.66;2544969;23;20409;-83
2021/07/09 01:24:59;;;;;;;4.10;2.47;;;;;;;11.88;100.00;93474.44;2558420;23;20081;-84
2021/07/09 01:26:00;;;;;;;2.38;2.10;;;;;;;12.03;96.39;93475.66;2544514;23;20090;-84
2021/07/09 01:27:02;;;;;;;5.20;2.22;;;;;;;11.94;98.60;93480.03;2556940;23;20005;-83
2021/07/09 01:28:07;;;;;;;2.80;2.42;;;;;;;11.91;100.00;93480.88;2557170;23;20413;-83
2021/07/09 01:29:09;;;;;;;2.70;2.50;;;;;;;11.95;99.36;93476.97;2569323;23;20038;-83
2021/07/09 01:30:13;;;;;;;2.58;1.90;;;;;;;11.95;97.29;93487.69;2556818;23;20009;-83
2021/07/09 01:31:14;;;;;;;2.50;2.33;;;;;;;11.89;97.53;93483.22;2546281;23;20009;-83
2021/07/09 01:32:15;;;;;;;4.18;2.15;;;;;;;11.84;99.70;93477.16;2569251;23;20004;-83
2021/07/09 01:33:16;;;;;;;2.25;2.10;;;;;;;11.77;99.63;93484.59;2568921;23;20008;-82
2021/07/09 01:34:16;;;;;;;5.40;2.55;;;;;;;11.74;100.00;93486.16;2557100;23;20005;-83
2021/07/09 01:35:18;;;;;;;3.38;2.38;;;;;;;11.83;98.47;93485.63;2556896;23;20001;-83
2021/07/09 01:36:19;;;;;;;3.92;2.30;;;;;;;11.84;97.14;93476.41;2557130;23;20436;-83
2021/07/09 01:37:19;;;;;;;3.72;2.45;;;;;;;11.93;95.97;93476.63;2556816;23;20008;-83
2021/07/09 01:38:20;;;;;;;2.40;2.30;;;;;;;11.90;96.54;93487.44;2544262;23;20006;-83
2021/07/09 01:39:21;;;;;;;4.68;2.67;;;;;;;11.79;99.97;93487.59;2557150;23;20001;-83
2021/07/09 01:40:22;;;;;;;2.72;2.53;;;;;;;11.83;97.89;93481.03;2556298;23;20001;-83
2021/07/09 01:41:23;;;;;;;2.38;2.20;;;;;;;11.74;100.00;93480.06;2556993;23;20769;-84
2021/07/09 01:42:23;;;;;;;3.10;2.58;;;;;;;11.65;100.00;93483.28;2556971;23;20009;-84
2021/07/09 01:43:25;;;;;;;2.92;2.22;;;;;;;11.75;99.21;93481.56;2544418;23;20005;-84
2021/07/09 01:44:26;;;;;;;4.05;2.40;;;;;;;11.68;99.65;93477.13;2556967;23;20009;-83
2021/07/09 01:45:27;;;;;;;3.88;2.92;;;;;;;11.77;99.60;93473.88;2569163;23;20001;-83
2021/07/09 01:46:27;;;;;;;5.55;3.17;;;;;;;11.73;98.52;93475.88;2542971;23;20080;-83
2021/07/09 01:47:28;;;;;;;2.97;2.78;;;;;;;11.72;99.25;93485.84;2542782;23;20032;-83
2021/07/09 01:48:29;;;;;;;5.82;2.75;;;;;;;11.76;100.00;93481.13;2555360;23;20005;-83
2021/07/09 01:49:29;;;;;;;3.60;2.53;;;;;;;11.75;97.56;93482.31;2567739;23;20005;-83
2021/07/09 01:50:31;;;;;;;3.85;2.85;;;;;;;11.73;98.74;93481.22;2568146;23;20021;-83
2021/07/09 01:51:32;;;;;;;2.65;2.33;;;;;;;11.65;99.60;93483.28;2556646;23;20036;-83
2021/07/09 01:52:33;;;;;;;2.60;2.42;;;;;;;11.66;99.76;93490.16;2555638;23;20044;-83
2021/07/09 01:53:33;;;;;;;2.80;2.50;;;;;;;11.66;100.00;93482.13;2556096;23;20080;-82
2021/07/09 01:54:36;;;;;;;2.58;2.38;;;;;;;11.63;98.21;93474.91;2581566;23;20004;-83
2021/07/09 01:55:36;;;;;;;2.70;2.50;;;;;;;11.68;99.81;93485.16;2581090;23;20008;-82
2021/07/09 01:56:37;;;;;;;4.55;2.75;;;;;;;11.64;97.70;93481.78;2556392;23;20001;-83
2021/07/09 01:57:39;;;;;;;9.25;2.60;;;;;;;11.70;100.00;93482.03;2569121;23;20007;-83
2021/07/09 01:58:40;;;;;;;3.15;2.65;;;;;;;11.64;97.35;93481.78;2569152;23;20412;-83
2021/07/09 01:59:41;;;;;;;4.75;2.58;;;;;;;11.74;98.43;93488.09;2544753;23;19997;-83
2021/07/09 02:00:42;;;;;;;3.45;3.08;;;;;;;11.67;98.80;93480.19;2544827;23;20060;-82
2021/07/09 02:01:43;;;;;;;2.63;2.40;;;;;;;11.72;97.72;93485.84;2569113;23;20431;-83
2021/07/09 02:02:44;;;;;;;4.32;2.80;;;;;;;11.75;96.77;93490.34;2581793;23;20007;-83
2021/07/09 02:03:44;;;;;;;2.75;2.55;;;;;;;11.82;95.47;93484.88;2556761;23;20357;-83
2021/07/09 02:06:11;;;;;;;;;;;;;;;11.65;97.32;93487.88;2142620;27;20130;-82
2021/07/09 02:07:11;;;;;;;2.15;2.03;;;;;;;11.68;97.34;93484.41;2128918;27;19911;-82
2021/07/09 02:08:12;;;;;;;3.42;2.70;;;;;;;11.65;97.71;93488.66;2124892;27;20027;-83
2021/07/09 02:09:13;;;;;;;2.63;2.30;;;;;;;11.68;95.76;93492.44;2122151;27;20027;-83
2021/07/09 02:10:17;;;;;;;4.32;2.65;;;;;;;11.68;96.12;93482.47;2115139;28;20020;-83
2021/07/09 02:11:18;;;;;;;5.88;2.83;;;;;;;11.68;96.57;93495.09;2113374;27;20030;-83
2021/07/09 02:12:22;;;;;;;3.53;2.65;;;;;;;11.65;98.99;93487.88;2126838;27;20079;-82
2021/07/09 02:13:23;;;;;;;3.88;2.95;;;;;;;11.70;98.21;93482.03;2113569;27;20050;-82
2021/07/09 02:14:23;;;;;;;3.33;2.28;;;;;;;11.61;98.99;93490.63;2117542;28;20039;-82
2021/07/09 02:15:35;;;;;;;4.00;2.95;;;;;;;11.64;99.36;93491.75;2104061;28;20032;-82
2021/07/09 02:16:36;;;;;;;2.97;2.63;;;;;;;11.62;99.80;93478.75;2104826;28;20021;-83
2021/07/09 02:17:37;;;;;;;2.50;2.30;;;;;;;11.56;100.00;93488.44;2125007;27;20077;-82
2021/07/09 02:18:38;;;;;;;2.85;2.58;;;;;;;11.54;100.00;93477.38;2122902;27;20026;-83
2021/07/09 02:19:40;;;;;;;4.03;2.80;;;;;;;11.58;100.00;93486.09;2106128;28;20039;-83
2021/07/09 02:20:42;;;;;;;5.65;2.58;;;;;;;11.55;100.00;93485.00;2114335;28;20095;-83
2021/07/09 02:21:47;;;;;;;3.00;2.80;;;;;;;11.59;100.00;93480.34;2106147;28;20527;-83
2021/07/09 02:22:48;;;;;;;2.60;2.28;;;;;;;11.68;96.45;93481.72;2105099;28;20066;-82
2021/07/09 02:23:49;;;;;;;3.85;2.22;;;;;;;11.68;96.69;93479.78;2108180;27;20161;-84
2021/07/09 02:24:50;;;;;;;3.85;2.75;;;;;;;11.62;100.00;93486.78;2108229;28;20015;-84
2021/07/09 02:25:51;;;;;;;4.07;2.70;;;;;;;11.61;100.00;93482.59;2105897;27;20024;-82
2021/07/09 02:26:51;;;;;;;3.00;2.45;;;;;;;11.59;100.00;93476.91;2105651;28;20508;-83
2021/07/09 02:27:54;;;;;;;4.50;2.50;;;;;;;11.66;98.80;93481.38;2110532;28;20078;-83
2021/07/09 02:28:54;;;;;;;2.88;2.67;;;;;;;11.69;97.27;93475.19;2112219;28;20084;-83
2021/07/09 02:29:55;;;;;;;3.60;2.53;;;;;;;11.71;96.62;93486.22;2103790;28;20033;-83
2021/07/09 02:30:56;;;;;;;4.13;2.90;;;;;;;11.73;99.09;93475.88;2116403;28;20112;-82
2021/07/09 02:31:58;;;;;;;2.95;2.55;;;;;;;11.76;96.07;93483.81;2113436;28;20024;-82
2021/07/09 02:32:59;;;;;;;3.30;2.15;;;;;;;11.73;97.61;93476.63;2117267;28;20082;-83
2021/07/09 02:34:00;;;;;;;3.00;2.67;;;;;;;11.70;97.67;93482.78;2105743;28;20020;-82
2021/07/09 02:35:03;;;;;;;4.57;2.80;;;;;;;11.71;98.49;93478.94;2112254;28;20090;-82
2021/07/09 02:36:04;;;;;;;3.50;2.50;;;;;;;11.62;98.74;93483.34;2114492;28;20047;-83
2021/07/09 02:37:06;;;;;;;4.10;2.50;;;;;;;11.61;98.85;93485.28;2112299;28;20015;-82
2021/07/09 02:38:09;;;;;;;3.20;2.70;;;;;;;11.64;100.00;93473.75;2125535;27;20101;-82
2021/07/09 02:39:11;;;;;;;2.92;2.47;;;;;;;11.71;97.31;93483.56;2121288;27;20051;-82
2021/07/09 02:40:14;;;;;;;4.05;2.20;;;;;;;11.86;94.88;93479.47;2119720;27;20019;-82
2021/07/09 02:41:15;;;;;;;3.75;2.72;;;;;;;11.77;98.07;93473.88;2122732;27;20023;-82
2021/07/09 02:42:16;;;;;;;2.78;2.47;;;;;;;11.82;96.70;93478.75;2122310;27;20516;-82
2021/07/09 02:43:16;;;;;;;4.97;2.80;;;;;;;11.90;95.50;93476.72;2125484;27;20043;-82
2021/07/09 02:44:17;;;;;;;2.95;2.65;;;;;;;11.86;97.44;93481.38;2116336;28;20072;-82
2021/07/09 02:45:19;;;;;;;4.30;2.50;;;;;;;11.78;98.32;93480.75;2111987;28;20023;-82
2021/07/09 02:46:20;;;;;;;2.80;2.60;;;;;;;11.80;97.01;93478.38;2103938;28;20357;-82
2021/07/09 02:47:20;;;;;;;3.97;2.80;;;;;;;11.73;98.24;93478.56;2118470;28;20057;-82
2021/07/09 02:48:21;;;;;;;4.60;2.85;;;;;;;11.93;94.64;93476.63;2118456;28;20034;-82
2021/07/09 02:49:22;;;;;;;3.25;2.58;;;;;;;11.94;94.35;93475.47;2119097;27;20027;-82
2021/07/09 02:50:24;;;;;;;4.43;2.80;;;;;;;11.79;98.31;93484.91;2112373;27;20027;-82
2021/07/09 02:51:25;;;;;;;2.67;2.47;;;;;;;11.76;97.06;93480.38;2115957;28;20027;-83
2021/07/09 02:52:25;;;;;;;3.85;3.35;;;;;;;11.78;97.76;93480.75;2121830;27;20038;-82
2021/07/09 02:53:26;;;;;;;4.47;2.50;;;;;;;11.77;98.40;93489.94;2127621;27;20022;-83
2021/07/09 02:54:27;;;;;;;3.75;2.80;;;;;;;11.80;97.05;93483.75;2105716;28;20012;-82
2021/07/09 02:55:27;;;;;;;2.70;2.50;;;;;;;11.83;97.29;93483.69;2109962;28;20030;-82
2021/07/09 02:56:28;;;;;;;2.58;2.38;;;;;;;11.78;97.60;93483.41;2103555;28;20035;-82
2021/07/09 02:57:29;;;;;;;2.97;2.67;;;;;;;11.74;98.87;93486.16;2111956;28;20819;-82
2021/07/09 02:58:31;;;;;;;3.85;2.67;;;;;;;11.73;99.06;93479.31;2104354;28;20457;-82
2021/07/09 02:59:32;;;;;;;3.40;2.72;;;;;;;11.84;97.64;93484.47;2103557;28;20016;-82
2021/07/09 03:00:33;;;;;;;2.95;2.58;;;;;;;11.90;95.94;93479.38;2112041;28;20012;-82
2021/07/09 03:01:38;;;;;;;5.10;3.20;;;;;;;11.83;97.33;93489.06;2116406;28;20019;-83
2021/07/09 03:02:39;;;;;;;4.40;2.67;;;;;;;11.81;98.82;93486.03;2118339;27;20662;-82
2021/07/09 03:03:40;;;;;;;6.47;2.97;;;;;;;11.79;99.35;93483.00;2112725;28;20055;-82
2021/07/09 03:04:40;;;;;;;3.00;2.70;;;;;;;11.76;98.65;93489.16;2104242;28;20085;-82
2021/07/09 03:05:41;;;;;;;4.15;2.92;;;;;;;11.80;99.12;93489.84;2096965;28;20044;-82
2021/07/09 03:06:42;;;;;;;4.57;2.80;;;;;;;11.71;100.00;93484.31;2101362;28;20075;-82
2021/07/09 03:07:43;;;;;;;4.07;2.75;;;;;;;11.63;100.00;93487.53;2112016;28;20513;-82
2021/07/09 03:08:44;;;;;;;4.60;3.15;;;;;;;11.67;98.83;93491.66;2105520;28;20016;-82
2021/07/09 03:09:44;;;;;;;4.35;2.55;;;;;;;11.70;99.12;93498.88;2113231;28;20015;-83
2021/07/09 03:10:45;;;;;;;3.53;3.25;;;;;;;11.74;99.41;93490.75;2108688;28;20016;-82
2021/07/09 03:11:46;;;;;;;3.50;2.85;;;;;;;11.86;98.30;93492.09;2116244;28;20023;-82
2021/07/09 03:12:47;;;;;;;4.22;3.00;;;;;;;11.78;98.78;93486.84;2109208;28;20497;-82
2021/07/09 03:13:47;;;;;;;3.08;2.80;;;;;;;11.82;97.25;93489.47;2095113;28;20672;-83
2021/07/09 03:14:48;;;;;;;2.80;2.60;;;;;;;11.83;98.63;93491.75;2097036;28;20016;-83
2021/07/09 03:15:49;;;;;;;3.40;3.10;;;;;;;11.88;98.82;93495.09;2096802;28;20024;-83
2021/07/09 03:16:50;;;;;;;2.80;2.60;;;;;;;12.02;94.82;93495.56;2102325;28;20020;-82
2021/07/09 03:17:50;;;;;;;4.95;3.08;;;;;;;11.93;96.71;93495.38;2101745;28;20381;-83
2021/07/09 03:18:51;;;;;;;3.42;2.83;;;;;;;11.81;97.85;93496.00;2099990;28;20016;-83
2021/07/09 03:19:52;;;;;;;5.65;3.25;;;;;;;11.76;99.51;93502.56;2108499;28;20022;-83
2021/07/09 03:20:54;;;;;;;3.78;2.50;;;;;;;11.84;97.39;93492.50;2093812;28;20437;-82
2021/07/09 03:21:54;;;;;;;3.55;2.70;;;;;;;11.89;98.34;93499.28;2098397;27;20024;-83
2021/07/09 03:22:55;;;;;;;3.42;2.70;;;;;;;11.88;97.53;93495.09;2101815;28;20020;-83
2021/07/09 03:23:56;;;;;;;4.38;3.28;;;;;;;11.84;98.19;93498.59;2099925;28;20031;-82
2021/07/09 03:24:57;;;;;;;3.72;3.05;;;;;;;11.82;100.00;93497.50;2106118;28;20065;-83
2021/07/09 03:26:00;;;;;;;5.35;3.40;;;;;;;11.86;97.18;93505.50;2106050;28;20031;-83
2021/07/09 03:27:01;;;;;;;3.40;3.10;;;;;;;11.86;99.23;93500.88;2098971;28;20039;-82
2021/07/09 03:28:01;;;;;;;4.15;2.90;;;;;;;11.89;97.94;93502.72;2091353;28;20020;-83
2021/07/09 03:29:03;;;;;;;3.47;3.10;;;;;;;11.87;99.22;93504.31;2098679;28;20016;-82
2021/07/09 03:30:07;;;;;;;4.07;2.85;;;;;;;11.86;99.28;93510.84;2106882;28;20024;-83
2021/07/09 03:31:08;;;;;;;2.92;2.63;;;;;;;11.78;98.81;93510.19;2094291;28;20032;-83
2021/07/09 03:32:10;;;;;;;3.05;2.75;;;;;;;11.79;99.47;93509.03;2091648;28;20768;-83
2021/07/09 03:33:11;;;;;;;4.53;2.92;;;;;;;11.93;96.92;93511.44;2100063;27;20786;-83
2021/07/09 03:34:11;;;;;;;5.82;2.85;;;;;;;12.00;96.01;93507.88;2103926;28;20025;-83
2021/07/09 03:35:12;;;;;;;2.67;2.47;;;;;;;12.02;95.40;93500.91;2094032;28;20024;-82
2021/07/09 03:36:13;;;;;;;4.30;2.65;;;;;;;11.92;96.97;93504.56;2091749;28;20155;-82
2021/07/09 03:37:14;;;;;;;2.90;2.60;;;;;;;11.87;98.22;93502.38;2098859;28;20028;-83
2021/07/09 03:38:14;;;;;;;4.65;2.63;;;;;;;11.82;98.43;93517.03;2099283;28;20440;-83
2021/07/09 03:39:15;;;;;;;2.72;2.53;;;;;;;11.87;99.20;93507.75;2102373;28;20021;-83
2021/07/09 03:40:16;;;;;;;2.63;2.42;;;;;;;11.97;97.38;93506.00;2105998;28;20020;-83
2021/07/09 03:41:17;;;;;;;4.07;2.63;;;;;;;12.01;95.89;93510.13;2110031;28;20361;-83
2021/07/09 03:42:18;;;;;;;2.80;2.38;;;;;;;11.92;97.67;93506.50;2093737;28;20028;-83
2021/07/09 03:43:18;;;;;;;3.75;2.58;;;;;;;11.92;98.97;93501.91;2099601;28;20086;-83
2021/07/09 03:44:19;;;;;;;2.45;2.25;;;;;;;11.93;99.27;93510.69;2103464;28;20433;-83
2021/07/09 03:45:20;;;;;;;3.65;2.35;;;;;;;11.81;99.65;93504.03;2089854;28;20124;-82
2021/07/09 03:46:20;;;;;;;2.83;2.40;;;;;;;11.88;100.00;93509.25;2097675;28;20103;-83
2021/07/09 03:47:21;;;;;;;4.20;3.00;;;;;;;11.83;100.00;93507.81;2105868;28;20027;-83
2021/07/09 03:48:22;;;;;;;4.32;3.03;;;;;;;11.79;100.00;93504.41;2099501;28;20024;-83
2021/07/09 03:49:23;;;;;;;3.85;2.45;;;;;;;11.80;100.00;93508.59;2093480;28;20024;-82
2021/07/09 03:50:24;;;;;;;2.83;2.50;;;;;;;11.78;100.00;93500.25;2089378;28;20112;-83
2021/07/09 03:51:24;;;;;;;3.08;2.22;;;;;;;11.84;100.00;93508.56;2104097;28;20016;-83
2021/07/09 03:52:25;;;;;;;4.13;2.45;;;;;;;11.84;98.21;93503.97;2112204;28;20031;-83
2021/07/09 03:53:26;;;;;;;3.58;2.40;;;;;;;11.88;97.91;93511.19;2104427;28;20020;-83
2021/07/09 03:54:26;;;;;;;2.60;2.40;;;;;;;11.94;97.77;93512.19;2091081;28;20516;-83
2021/07/09 03:55:27;;;;;;;3.67;2.35;;;;;;;11.94;96.63;93512.19;2091457;28;20120;-83
2021/07/09 03:56:31;;;;;;;2.80;2.45;;;;;;;11.99;95.10;93509.03;2099660;28;20070;-82
2021/07/09 03:57:32;;;;;;;2.80;2.47;;;;;;;11.94;96.41;93510.28;2103399;27;20024;-83
2021/07/09 03:58:33;;;;;;;3.85;2.35;;;;;;;11.93;96.85;93514.13;2100433;28;20021;-83
2021/07/09 03:59:34;;;;;;;3.28;2.70;;;;;;;11.91;97.90;93516.47;2095204;28;20025;-83
2021/07/09 04:00:35;;;;;;;4.88;2.80;;;;;;;11.82;98.00;93514.34;2089874;28;20071;-83
2021/07/09 04:01:36;;;;;;;3.03;2.72;;;;;;;11.79;98.47;93520.50;2099341;28;20044;-83
2021/07/09 04:02:37;;;;;;;3.03;2.72;;;;;;;11.79;99.35;93517.81;2105823;28;20087;-83
2021/07/09 04:03:38;;;;;;;4.40;2.55;;;;;;;11.75;99.32;93522.47;2105877;28;20461;-83
2021/07/09 04:04:40;;;;;;;2.70;2.50;;;;;;;11.75;100.00;93524.41;2090803;28;20032;-83
2021/07/09 04:05:40;;;;;;;2.53;2.33;;;;;;;11.89;96.55;93520.72;2097358;28;20044;-83
2021/07/09 04:06:41;;;;;;;4.75;2.17;;;;;;;11.91;96.86;93523.75;2106387;28;20114;-82
2021/07/09 04:07:42;;;;;;;5.15;2.10;;;;;;;11.90;96.73;93514.97;2101835;28;20054;-83
2021/07/09 04:08:42;;;;;;;3.90;2.42;;;;;;;11.92;97.25;93517.22;2091739;28;20017;-82
2021/07/09 04:09:43;;;;;;;5.43;2.20;;;;;;;11.87;98.17;93520.38;2093361;28;20723;-82
2021/07/09 04:10:44;;;;;;;3.75;2.38;;;;;;;11.84;97.95;93530.00;2100391;28;20039;-82
2021/07/09 04:11:44;;;;;;;4.75;2.70;;;;;;;11.86;97.84;93524.25;2091860;28;20025;-82
2021/07/09 04:12:45;;;;;;;3.33;2.22;;;;;;;11.91;97.12;93526.44;2088050;28;20017;-82
2021/07/09 04:13:46;;;;;;;4.18;2.97;;;;;;;11.90;97.41;93530.28;2100662;28;20458;-82
2021/07/09 04:14:47;;;;;;;7.40;2.50;;;;;;;11.90;99.83;93530.28;2099358;28;20492;-82
2021/07/09 04:15:47;;;;;;;3.88;2.45;;;;;;;11.86;98.33;93535.72;2099691;28;20808;-82
2021/07/09 04:16:48;;;;;;;3.80;2.50;;;;;;;11.88;97.10;93533.34;2097219;28;20540;-83
2021/07/09 04:17:49;;;;;;;2.63;2.42;;;;;;;11.87;97.96;93528.41;2104845;28;20025;-83
2021/07/09 04:18:50;;;;;;;2.70;2.50;;;;;;;11.86;99.84;93529.59;2108765;27;20027;-83
2021/07/09 04:19:51;;;;;;;2.88;2.53;;;;;;;11.88;100.00;93524.56;2095464;28;20016;-83
2021/07/09 04:20:52;;;;;;;5.28;2.85;;;;;;;11.84;100.00;93530.75;2098974;28;20019;-83
2021/07/09 04:21:52;;;;;;;4.63;2.50;;;;;;;11.90;98.24;93533.72;2104007;28;20020;-83
2021/07/09 04:22:57;;;;;;;2.40;2.30;;;;;;;11.86;100.00;93526.91;2105652;28;20062;-83
2021/07/09 04:23:58;;;;;;;3.20;2.55;;;;;;;11.93;96.45;93537.47;2097982;28;20028;-83
2021/07/09 04:24:58;;;;;;;2.53;2.22;;;;;;;11.93;98.84;93535.53;2099315;28;20020;-83
2021/07/09 04:25:59;;;;;;;5.20;3.03;;;;;;;11.83;99.74;93536.53;2104150;28;20051;-83
2021/07/09 04:27:00;;;;;;;5.07;2.60;;;;;;;11.81;100.00;93536.91;2098132;28;20111;-83
2021/07/09 04:28:00;;;;;;;3.00;2.70;;;;;;;11.85;100.00;93534.19;2092811;28;20017;-83
2021/07/09 04:29:02;;;;;;;3.88;2.47;;;;;;;11.97;96.52;93530.13;2096143;28;20020;-83
2021/07/09 04:30:04;;;;;;;4.40;3.63;;;;;;;11.96;97.30;93540.09;2088318;28;20020;-83
2021/07/09 04:31:05;;;;;;;4.63;2.50;;;;;;;11.93;97.21;93535.53;2099798;28;20021;-83
2021/07/09 04:32:06;;;;;;;2.85;2.33;;;;;;;11.89;99.10;93542.16;2111600;28;20072;-83
2021/07/09 04:33:06;;;;;;;3.33;2.40;;;;;;;11.90;98.89;93538.31;2113968;28;20020;-83
2021/07/09 04:34:07;;;;;;;5.07;2.50;;;;;;;11.90;98.03;93543.69;2099220;28;20024;-83
2021/07/09 04:35:08;;;;;;;3.22;2.70;;;;;;;11.91;97.20;93545.94;2106009;28;20034;-83
2021/07/09 04:36:09;;;;;;;2.38;2.17;;;;;;;11.95;96.02;93538.59;2091060;28;20111;-83
2021/07/09 04:37:10;;;;;;;4.90;2.65;;;;;;;12.07;94.36;93537.19;2089223;28;20473;-82
2021/07/09 04:38:10;;;;;;;2.33;2.13;;;;;;;12.08;94.27;93546.75;2105566;28;20020;-83
2021/07/09 04:39:11;;;;;;;3.08;2.38;;;;;;;12.04;97.88;93538.03;2105669;28;20019;-83
2021/07/09 04:40:13;;;;;;;2.53;2.25;;;;;;;12.02;95.98;93540.34;2089342;28;20028;-82
2021/07/09 04:41:13;;;;;;;5.10;2.47;;;;;;;12.00;96.08;93548.06;2099690;28;20016;-83
2021/07/09 04:42:14;;;;;;;2.80;2.60;;;;;;;11.90;96.75;93536.38;2099386;28;20031;-82
2021/07/09 04:43:15;;;;;;;2.42;2.22;;;;;;;11.93;97.07;93548.19;2098707;28;20074;-83
2021/07/09 04:44:15;;;;;;;6.85;2.88;;;;;;;11.97;95.13;93540.84;2099362;28;20021;-82
2021/07/09 04:45:16;;;;;;;4.22;2.53;;;;;;;11.87;96.21;93534.53;2103153;28;20453;-82
2021/07/09 04:46:17;;;;;;;2.58;2.38;;;;;;;11.88;98.06;93538.72;2100485;28;20020;-82
2021/07/09 04:47:18;;;;;;;5.32;2.65;;;;;;;11.86;98.06;93543.75;2097336;28;20054;-82
2021/07/09 04:48:18;;;;;;;4.95;2.58;;;;;;;11.84;98.99;93546.06;2097032;28;20504;-82
2021/07/09 04:49:19;;;;;;;5.25;2.67;;;;;;;11.74;98.94;93553.13;2099327;28;20021;-82